createdAt,value
2022-09-28T00:01:53.595Z,5.93
2022-09-28T00:04:20.725Z,6.07
2022-09-28T00:06:47.522Z,6.11
2022-09-28T00:09:16.724Z,6.16
2022-09-28T00:11:43.628Z,6.32
2022-09-28T00:14:10.863Z,6.40
2022-09-28T00:16:41.028Z,6.38
2022-09-28T00:19:07.947Z,6.36
2022-09-28T00:21:37.326Z,6.45
2022-09-28T00:24:05.873Z,6.43
2022-09-28T00:26:34.046Z,6.47
2022-09-28T00:29:02.155Z,6.47
2022-09-28T00:31:30.587Z,6.50
2022-09-28T00:33:57.430Z,6.64
2022-09-28T00:36:24.995Z,6.57
2022-09-28T00:38:51.521Z,6.51
2022-09-28T00:41:18.189Z,6.61
2022-09-28T00:43:46.106Z,6.56
2022-09-28T00:46:17.757Z,6.56
2022-09-28T00:48:51.591Z,6.65
2022-09-28T00:51:18.318Z,6.67
2022-09-28T00:53:45.175Z,6.68
2022-09-28T00:56:15.810Z,6.68
2022-09-28T00:58:47.798Z,6.73
2022-09-28T01:01:14.667Z,6.60
2022-09-28T01:03:41.539Z,6.60
2022-09-28T01:06:09.256Z,6.59
2022-09-28T01:08:36.866Z,6.61
2022-09-28T01:11:03.386Z,6.56
2022-09-28T01:13:31.752Z,6.63
2022-09-28T01:16:09.036Z,6.58
2022-09-28T01:18:43.422Z,6.55
2022-09-28T01:21:14.886Z,6.56
2022-09-28T01:24:25.907Z,6.50
2022-09-28T01:27:03.241Z,6.60
2022-09-28T01:29:43.505Z,6.64
2022-09-28T01:32:16.418Z,6.69
2022-09-28T01:34:51.829Z,6.65
2022-09-28T01:37:21.557Z,6.66
2022-09-28T01:39:51.379Z,6.59
2022-09-28T01:42:23.961Z,6.56
2022-09-28T01:44:54.559Z,6.50
2022-09-28T01:47:23.924Z,6.51
2022-09-28T01:49:59.142Z,6.49
2022-09-28T01:52:31.569Z,6.49
2022-09-28T01:55:02.630Z,6.49
2022-09-28T01:57:37.642Z,6.60
2022-09-28T02:00:07.556Z,6.61
2022-09-28T02:02:37.012Z,6.53
2022-09-28T02:05:08.745Z,6.55
2022-09-28T02:07:40.743Z,6.56
2022-09-28T02:10:12.863Z,6.57
2022-09-28T02:12:44.951Z,6.57
2022-09-28T02:15:16.934Z,6.63
2022-09-28T02:17:43.932Z,6.53
2022-09-28T02:20:11.056Z,6.52
2022-09-28T02:22:41.373Z,6.54
2022-09-28T02:25:11.126Z,6.61
2022-09-28T02:27:45.355Z,6.73
2022-09-28T02:30:12.271Z,6.69
2022-09-28T02:32:44.968Z,6.60
2022-09-28T02:35:13.432Z,6.52
2022-09-28T02:37:40.654Z,6.53
2022-09-28T02:40:13.251Z,6.51
2022-09-28T02:42:51.974Z,6.51
2022-09-28T02:45:29.695Z,6.54
2022-09-28T02:48:05.384Z,6.64
2022-09-28T02:50:41.696Z,6.68
2022-09-28T02:53:25.285Z,6.67
2022-09-28T02:56:07.580Z,6.68
2022-09-28T02:58:42.833Z,6.72
2022-09-28T03:01:20.116Z,6.68
2022-09-28T03:03:54.248Z,6.74
2022-09-28T03:06:26.808Z,6.78
2022-09-28T03:09:00.949Z,6.74
2022-09-28T03:11:34.893Z,6.75
2022-09-28T03:14:04.100Z,6.69
2022-09-28T03:16:30.633Z,6.69
2022-09-28T03:18:57.242Z,6.70
2022-09-28T03:21:23.927Z,6.70
2022-09-28T03:23:50.414Z,6.71
2022-09-28T03:26:16.937Z,6.70
2022-09-28T03:28:43.660Z,6.71
2022-09-28T03:31:11.580Z,6.68
2022-09-28T03:33:38.200Z,6.69
2022-09-28T03:36:04.929Z,6.77
2022-09-28T03:38:31.418Z,6.72
2022-09-28T03:40:59.899Z,6.71
2022-09-28T03:43:27.744Z,6.75
2022-09-28T03:45:54.786Z,6.74
2022-09-28T03:48:25.865Z,6.79
2022-09-28T03:50:56.384Z,6.71
2022-09-28T03:53:23.090Z,6.76
2022-09-28T03:55:50.382Z,6.77
2022-09-28T03:58:17.089Z,6.75
2022-09-28T04:00:43.636Z,6.80
2022-09-28T04:03:10.203Z,6.79
2022-09-28T04:05:38.114Z,6.81
2022-09-28T04:08:04.867Z,6.82
2022-09-28T04:10:31.387Z,6.84
2022-09-28T04:12:58.064Z,6.83
2022-09-28T04:15:25.154Z,6.88
2022-09-28T04:17:51.730Z,6.92
2022-09-28T04:20:18.490Z,6.90
2022-09-28T04:22:46.351Z,6.86
2022-09-28T04:25:12.826Z,6.89
2022-09-28T04:27:39.323Z,6.89
2022-09-28T04:30:06.871Z,6.92
2022-09-28T04:32:33.383Z,6.94
2022-09-28T04:34:59.841Z,6.96
2022-09-28T04:37:26.320Z,6.99
2022-09-28T04:39:54.160Z,6.96
2022-09-28T04:42:20.659Z,6.97
2022-09-28T04:44:47.167Z,6.97
2022-09-28T04:47:13.826Z,6.96
2022-09-28T04:49:40.319Z,6.96
2022-09-28T04:52:07.271Z,6.97
2022-09-28T04:54:34.085Z,6.98
2022-09-28T04:57:01.943Z,7.05
2022-09-28T04:59:28.482Z,7.05
2022-09-28T05:01:55.027Z,7.05
2022-09-28T05:04:25.856Z,7.09
2022-09-28T05:06:52.760Z,7.09
2022-09-28T05:09:19.243Z,7.12
2022-09-28T05:11:45.751Z,7.13
2022-09-28T05:14:13.579Z,7.11
2022-09-28T05:16:40.146Z,7.14
2022-09-28T05:19:06.766Z,7.19
2022-09-28T05:21:33.262Z,7.24
2022-09-28T05:23:59.762Z,7.26
2022-09-28T05:26:26.258Z,7.29
2022-09-28T05:28:52.735Z,7.33
2022-09-28T05:31:20.662Z,7.38
2022-09-28T05:33:47.177Z,7.47
2022-09-28T05:36:13.678Z,7.51
2022-09-28T05:38:40.198Z,7.54
2022-09-28T05:41:07.100Z,7.58
2022-09-28T05:43:34.160Z,7.70
2022-09-28T05:46:00.749Z,7.73
2022-09-28T05:48:28.646Z,7.78
2022-09-28T05:50:55.161Z,7.83
2022-09-28T05:53:22.018Z,7.81
2022-09-28T05:55:48.696Z,7.84
2022-09-28T05:58:15.677Z,7.85
2022-09-28T06:00:42.717Z,7.87
2022-09-28T06:03:12.340Z,7.90
2022-09-28T06:05:40.654Z,7.93
2022-09-28T06:08:08.616Z,7.92
2022-09-28T06:10:35.189Z,7.92
2022-09-28T06:13:01.817Z,7.98
2022-09-28T06:15:30.237Z,8.01
2022-09-28T06:17:57.504Z,8.03
2022-09-28T06:20:24.392Z,8.07
2022-09-28T06:22:52.786Z,8.13
2022-09-28T06:25:19.387Z,8.16
2022-09-28T06:27:53.850Z,8.23
2022-09-28T06:30:20.330Z,8.25
2022-09-28T06:32:46.828Z,8.21
2022-09-28T06:35:13.458Z,8.23
2022-09-28T06:37:40.013Z,8.25
2022-09-28T06:40:08.835Z,8.26
2022-09-28T06:42:35.337Z,8.30
2022-09-28T06:45:01.814Z,8.28
2022-09-28T06:47:28.316Z,8.34
2022-09-28T06:49:54.788Z,8.33
2022-09-28T06:52:21.758Z,8.32
2022-09-28T06:54:48.297Z,8.37
2022-09-28T06:57:16.140Z,8.36
2022-09-28T06:59:42.646Z,8.40
2022-09-28T07:02:10.661Z,8.40
2022-09-28T07:04:37.279Z,8.42
2022-09-28T07:07:03.799Z,8.52
2022-09-28T07:09:33.157Z,8.54
2022-09-28T07:12:00.781Z,8.50
2022-09-28T07:14:44.557Z,8.41
2022-09-28T07:17:14.450Z,8.32
2022-09-28T07:19:41.401Z,8.39
2022-09-28T07:22:08.032Z,8.41
2022-09-28T07:24:34.558Z,8.40
2022-09-28T07:27:01.033Z,8.45
2022-09-28T07:29:28.873Z,8.42
2022-09-28T07:31:55.383Z,8.42
2022-09-28T07:34:23.585Z,8.49
2022-09-28T07:36:50.077Z,8.41
2022-09-28T07:39:16.583Z,8.40
2022-09-28T07:41:43.088Z,8.44
2022-09-28T07:44:09.626Z,8.45
2022-09-28T07:46:37.549Z,8.54
2022-09-28T07:49:06.977Z,8.48
2022-09-28T07:51:36.453Z,8.48
2022-09-28T07:54:03.004Z,8.52
2022-09-28T07:56:29.569Z,8.49
2022-09-28T07:58:56.063Z,8.56
2022-09-28T08:01:22.777Z,8.65
2022-09-28T08:03:50.684Z,8.68
2022-09-28T08:06:17.249Z,8.63
2022-09-28T08:08:44.431Z,8.59
2022-09-28T08:11:11.417Z,8.58
2022-09-28T08:13:38.522Z,8.61
2022-09-28T08:16:05.766Z,8.62
2022-09-28T08:18:32.317Z,8.69
2022-09-28T08:21:00.424Z,8.81
2022-09-28T08:23:26.990Z,9.01
2022-09-28T08:25:53.815Z,9.14
2022-09-28T08:28:21.627Z,9.20
2022-09-28T08:30:48.554Z,9.16
2022-09-28T08:33:16.455Z,9.18
2022-09-28T08:35:42.954Z,9.26
2022-09-28T08:38:10.869Z,9.39
2022-09-28T08:41:00.139Z,9.34
2022-09-28T08:43:44.793Z,9.30
2022-09-28T08:46:13.389Z,9.20
2022-09-28T08:49:13.085Z,9.33
2022-09-28T08:51:42.157Z,9.40
2022-09-28T08:54:19.161Z,9.42
2022-09-28T08:56:50.305Z,9.45
2022-09-28T08:59:20.753Z,9.43
2022-09-28T09:01:54.461Z,9.48
2022-09-28T09:04:22.658Z,9.51
2022-09-28T09:07:11.115Z,9.51
2022-09-28T09:09:53.669Z,9.53
2022-09-28T09:12:29.198Z,9.54
2022-09-28T09:15:19.856Z,9.62
2022-09-28T09:17:56.370Z,9.58
2022-09-28T09:20:33.119Z,9.61
2022-09-28T09:23:00.771Z,9.66
2022-09-28T09:25:40.273Z,9.73
2022-09-28T09:28:45.138Z,9.78
2022-09-28T09:31:23.067Z,9.74
2022-09-28T09:34:12.199Z,9.71
2022-09-28T09:36:52.866Z,9.67
2022-09-28T09:39:35.046Z,9.76
2022-09-28T09:42:15.975Z,9.71
2022-09-28T09:45:06.352Z,9.56
2022-09-28T09:47:37.940Z,9.62
2022-09-28T09:50:10.884Z,9.50
2022-09-28T09:52:47.003Z,9.49
2022-09-28T09:55:19.077Z,9.61
2022-09-28T09:57:51.558Z,9.71
2022-09-28T10:00:18.685Z,9.89
2022-09-28T10:02:47.361Z,9.97
2022-09-28T10:05:22.096Z,10.10
2022-09-28T10:07:54.595Z,10.21
2022-09-28T10:10:25.402Z,10.21
2022-09-28T10:12:53.821Z,10.32
2022-09-28T10:15:24.403Z,10.37
2022-09-28T10:17:51.526Z,10.34
2022-09-28T10:20:18.321Z,10.45
2022-09-28T10:22:46.381Z,10.62
2022-09-28T10:25:13.764Z,10.88
2022-09-28T10:27:43.944Z,11.03
2022-09-28T10:30:17.317Z,10.95
2022-09-28T10:32:46.000Z,10.90
2022-09-28T10:35:25.138Z,10.97
2022-09-28T10:37:56.804Z,11.01
2022-09-28T10:40:31.775Z,10.98
2022-09-28T10:43:18.590Z,11.09
2022-09-28T10:45:46.737Z,11.15
2022-09-28T10:48:19.106Z,11.01
2022-09-28T10:50:58.369Z,11.11
2022-09-28T10:53:24.948Z,11.18
2022-09-28T10:56:02.938Z,11.27
2022-09-28T10:58:36.810Z,11.33
2022-09-28T11:01:09.129Z,11.70
2022-09-28T11:03:48.508Z,11.76
2022-09-28T11:06:15.825Z,11.69
2022-09-28T11:08:44.705Z,11.98
2022-09-28T11:11:13.776Z,12.20
2022-09-28T11:13:45.695Z,12.21
2022-09-28T11:16:21.221Z,12.28
2022-09-28T11:18:48.029Z,12.35
2022-09-28T11:21:17.010Z,12.44
2022-09-28T11:23:59.683Z,12.49
2022-09-28T11:26:26.614Z,12.46
2022-09-28T11:28:53.575Z,12.74
2022-09-28T11:31:28.032Z,12.69
2022-09-28T11:34:05.007Z,12.44
2022-09-28T11:36:45.458Z,12.34
2022-09-28T11:39:21.221Z,12.47
2022-09-28T11:41:56.798Z,12.65
2022-09-28T11:44:37.042Z,12.57
2022-09-28T11:47:27.633Z,12.14
2022-09-28T11:50:00.468Z,11.99
2022-09-28T11:52:31.954Z,11.66
2022-09-28T11:55:04.994Z,11.54
2022-09-28T11:57:36.675Z,11.57
2022-09-28T12:00:05.914Z,11.51
2022-09-28T12:02:39.896Z,10.93
2022-09-28T12:05:17.130Z,11.17
2022-09-28T12:07:49.842Z,11.10
2022-09-28T12:10:21.290Z,11.14
2022-09-28T12:12:53.343Z,11.16
2022-09-28T12:15:23.932Z,11.20
2022-09-28T12:17:56.154Z,11.41
2022-09-28T12:20:26.758Z,11.29
2022-09-28T12:23:05.439Z,11.14
2022-09-28T12:25:39.833Z,11.25
2022-09-28T12:28:13.110Z,11.19
2022-09-28T12:30:43.120Z,11.21
2022-09-28T12:33:13.302Z,11.28
2022-09-28T12:36:04.162Z,11.51
2022-09-28T12:39:08.509Z,11.71
2022-09-28T12:41:50.458Z,11.97
2022-09-28T12:44:33.907Z,11.98
2022-09-28T12:47:23.131Z,11.63
2022-09-28T12:53:02.927Z,12.41
2022-09-28T12:55:46.486Z,12.46
2022-09-28T12:58:28.557Z,12.36
2022-09-28T13:01:02.431Z,12.24
2022-09-28T13:04:01.799Z,12.00
2022-09-28T13:06:40.246Z,12.42
2022-09-28T13:09:20.237Z,12.55
2022-09-28T13:12:09.051Z,12.83
2022-09-28T13:15:09.180Z,12.75
2022-09-28T13:17:48.881Z,12.93
2022-09-28T13:20:28.673Z,13.09
2022-09-28T13:23:07.633Z,12.96
2022-09-28T13:25:36.138Z,12.98
2022-09-28T13:28:04.903Z,12.91
2022-09-28T13:30:34.395Z,12.73
2022-09-28T13:33:03.026Z,12.87
2022-09-28T13:35:30.139Z,12.59
2022-09-28T13:38:43.285Z,12.72
2022-09-28T13:41:12.512Z,12.67
2022-09-28T13:43:53.133Z,12.54
2022-09-28T13:46:27.321Z,12.55
2022-09-28T13:49:05.938Z,12.69
2022-09-28T13:51:46.255Z,12.45
2022-09-28T13:54:27.534Z,12.53
2022-09-28T13:57:03.897Z,12.36
2022-09-28T13:59:33.717Z,12.31
2022-09-28T14:02:09.758Z,12.43
2022-09-28T14:04:54.019Z,12.47
2022-09-28T14:07:24.170Z,12.51
2022-09-28T14:10:18.396Z,12.53
2022-09-28T14:12:48.036Z,12.89
2022-09-28T14:15:44.545Z,12.77
2022-09-28T14:18:20.624Z,12.96
2022-09-28T14:21:00.065Z,12.86
2022-09-28T14:23:56.346Z,12.63
2022-09-28T14:26:54.589Z,12.47
2022-09-28T14:29:26.667Z,12.46
2022-09-28T14:31:53.306Z,12.49
2022-09-28T14:34:26.903Z,12.43
2022-09-28T14:36:53.545Z,12.24
2022-09-28T14:39:25.614Z,12.34
2022-09-28T14:41:53.564Z,12.23
2022-09-28T14:44:20.270Z,12.33
2022-09-28T14:46:47.863Z,12.41
2022-09-28T14:49:47.318Z,12.21
2022-09-28T14:52:19.124Z,12.43
2022-09-28T14:54:51.170Z,12.26
2022-09-28T14:57:22.569Z,12.33
2022-09-28T14:59:49.244Z,12.36
2022-09-28T15:02:23.132Z,12.38
2022-09-28T15:04:53.970Z,12.46
2022-09-28T15:07:23.342Z,12.61
2022-09-28T15:09:51.568Z,12.69
2022-09-28T15:12:21.801Z,12.46
2022-09-28T15:14:52.295Z,12.58
2022-09-28T15:17:21.311Z,12.26
2022-09-28T15:19:59.294Z,12.23
2022-09-28T15:22:26.193Z,11.95
2022-09-28T15:25:02.063Z,11.93
2022-09-28T15:27:36.379Z,11.92
2022-09-28T15:30:18.768Z,11.67
2022-09-28T15:32:45.364Z,11.64
2022-09-28T15:35:15.509Z,11.57
2022-09-28T15:37:42.588Z,11.37
2022-09-28T15:40:14.252Z,11.44
2022-09-28T15:42:42.430Z,11.00
2022-09-28T15:45:23.869Z,11.02
2022-09-28T15:47:51.296Z,10.94
2022-09-28T15:50:22.711Z,11.04
2022-09-28T15:52:54.722Z,11.05
2022-09-28T15:55:26.670Z,11.02
2022-09-28T15:58:06.131Z,10.92
2022-09-28T16:00:32.686Z,10.88
2022-09-28T16:03:18.797Z,10.82
2022-09-28T16:05:48.150Z,10.96
2022-09-28T16:08:16.401Z,11.05
2022-09-28T16:10:55.843Z,11.08
2022-09-28T16:13:23.915Z,10.79
2022-09-28T16:15:54.940Z,10.79
2022-09-28T16:18:21.854Z,10.80
2022-09-28T16:20:51.234Z,10.79
2022-09-28T16:23:22.181Z,10.80
2022-09-28T16:25:51.311Z,10.90
2022-09-28T16:28:28.199Z,10.94
2022-09-28T16:31:02.026Z,10.76
2022-09-28T16:33:30.418Z,10.39
2022-09-28T16:36:02.441Z,10.40
2022-09-28T16:38:28.956Z,10.37
2022-09-28T16:40:55.564Z,10.30
2022-09-28T16:43:26.625Z,10.32
2022-09-28T16:45:53.508Z,10.32
2022-09-28T16:48:20.414Z,10.05
2022-09-28T16:50:46.956Z,9.65
2022-09-28T16:53:15.513Z,9.67
2022-09-28T16:55:42.067Z,9.59
2022-09-28T16:58:08.635Z,9.55
2022-09-28T17:00:36.569Z,9.53
2022-09-28T17:03:12.852Z,9.48
2022-09-28T17:05:39.452Z,9.50
2022-09-28T17:08:06.010Z,9.66
2022-09-28T17:10:50.085Z,9.60
2022-09-28T17:13:25.446Z,9.63
2022-09-28T17:15:53.393Z,9.63
2022-09-28T17:18:19.970Z,9.45
2022-09-28T17:20:49.541Z,9.43
2022-09-28T17:23:16.884Z,9.33
2022-09-28T17:25:44.713Z,9.24
2022-09-28T17:28:18.905Z,9.20
2022-09-28T17:30:45.669Z,9.14
2022-09-28T17:33:13.944Z,9.03
2022-09-28T17:35:41.771Z,8.90
2022-09-28T17:38:10.975Z,8.82
2022-09-28T17:40:37.762Z,8.80
2022-09-28T17:43:04.346Z,8.73
2022-09-28T17:45:31.748Z,8.70
2022-09-28T17:47:58.687Z,8.65
2022-09-28T17:50:28.123Z,8.54
2022-09-28T17:52:55.205Z,8.47
2022-09-28T17:55:23.759Z,8.46
2022-09-28T17:57:50.661Z,8.33
2022-09-28T18:00:18.063Z,8.32
2022-09-28T18:02:45.126Z,8.23
2022-09-28T18:05:12.485Z,8.20
2022-09-28T18:07:45.371Z,8.09
2022-09-28T18:10:15.117Z,8.02
2022-09-28T18:12:41.721Z,8.06
2022-09-28T18:15:09.704Z,8.02
2022-09-28T18:17:36.448Z,7.90
2022-09-28T18:20:03.619Z,7.88
2022-09-28T18:22:30.189Z,7.69
2022-09-28T18:24:58.111Z,7.60
2022-09-28T18:27:24.690Z,7.53
2022-09-28T18:29:51.238Z,7.47
2022-09-28T18:32:17.779Z,7.42
2022-09-28T18:34:44.288Z,7.28
2022-09-28T18:37:10.819Z,7.22
2022-09-28T18:39:37.381Z,7.30
2022-09-28T18:42:05.843Z,7.14
2022-09-28T18:44:32.908Z,7.10
2022-09-28T18:46:59.584Z,7.06
2022-09-28T18:49:26.106Z,7.11
2022-09-28T18:51:52.666Z,7.17
2022-09-28T18:54:19.219Z,7.23
2022-09-28T18:56:45.790Z,7.31
2022-09-28T18:59:13.806Z,7.32
2022-09-28T19:01:40.522Z,7.25
2022-09-28T19:04:09.612Z,7.27
2022-09-28T19:06:38.681Z,7.26
2022-09-28T19:09:05.267Z,7.33
2022-09-28T19:11:32.019Z,7.34
2022-09-28T19:13:58.749Z,7.32
2022-09-28T19:16:28.328Z,7.27
2022-09-28T19:18:56.006Z,7.21
2022-09-28T19:21:22.696Z,7.17
2022-09-28T19:23:50.033Z,7.11
2022-09-28T19:26:19.486Z,7.11
2022-09-28T19:28:46.338Z,7.09
2022-09-28T19:31:13.202Z,7.12
2022-09-28T19:33:41.166Z,7.08
2022-09-28T19:36:10.270Z,6.97
2022-09-28T19:38:38.833Z,6.94
2022-09-28T19:41:09.591Z,6.92
2022-09-28T19:43:36.457Z,6.93
2022-09-28T19:46:04.907Z,6.94
2022-09-28T19:48:32.385Z,6.92
2022-09-28T19:51:01.595Z,6.92
2022-09-28T19:53:30.140Z,6.91
2022-09-28T19:55:59.499Z,6.91
2022-09-28T19:58:29.990Z,6.81
2022-09-28T20:00:56.542Z,6.89
2022-09-28T20:03:23.075Z,6.94
2022-09-28T20:05:56.732Z,6.98
2022-09-28T20:08:24.828Z,7.04
2022-09-28T20:10:52.281Z,7.03
2022-09-28T20:13:18.957Z,6.97
2022-09-28T20:15:47.458Z,6.97
2022-09-28T20:18:14.374Z,7.04
2022-09-28T20:20:41.375Z,7.06
2022-09-28T20:23:08.159Z,6.92
2022-09-28T20:25:36.334Z,6.90
2022-09-28T20:28:02.910Z,6.91
2022-09-28T20:30:29.503Z,6.91
2022-09-28T20:32:56.271Z,6.91
2022-09-28T20:35:32.680Z,6.98
2022-09-28T20:37:59.896Z,7.03
2022-09-28T20:40:26.483Z,7.07
2022-09-28T20:42:54.390Z,6.98
2022-09-28T20:45:20.929Z,7.01
2022-09-28T20:47:47.478Z,7.02
2022-09-28T20:50:14.154Z,6.97
2022-09-28T20:52:40.680Z,6.91
2022-09-28T20:55:08.113Z,6.86
2022-09-28T20:57:34.679Z,6.80
2022-09-28T21:00:03.955Z,6.77
2022-09-28T21:02:30.520Z,6.83
2022-09-28T21:04:57.080Z,6.84
2022-09-28T21:07:23.663Z,6.81
2022-09-28T21:09:50.185Z,6.82
2022-09-28T21:12:16.743Z,6.90
2022-09-28T21:14:43.303Z,6.92
2022-09-28T21:17:11.226Z,6.94
2022-09-28T21:19:37.766Z,6.89
2022-09-28T21:22:04.334Z,6.95
2022-09-28T21:24:30.862Z,6.94
2022-09-28T21:26:57.416Z,6.87
2022-09-28T21:29:23.929Z,6.85
2022-09-28T21:31:50.476Z,6.87
2022-09-28T21:34:20.370Z,6.79
2022-09-28T21:36:47.924Z,6.74
2022-09-28T21:39:14.708Z,6.77
2022-09-28T21:41:41.525Z,6.83
2022-09-28T21:44:08.063Z,6.85
2022-09-28T21:46:35.300Z,6.90
2022-09-28T21:49:03.074Z,6.92
2022-09-28T21:51:31.465Z,6.91
2022-09-28T21:53:58.101Z,6.94
2022-09-28T21:56:24.659Z,7.02
2022-09-28T21:58:51.240Z,7.02
2022-09-28T22:01:19.575Z,7.01
2022-09-28T22:03:48.187Z,6.95
2022-09-28T22:06:15.368Z,6.98
2022-09-28T22:08:43.262Z,6.90
2022-09-28T22:11:12.340Z,6.95
2022-09-28T22:13:41.155Z,6.96
2022-09-28T22:16:09.065Z,6.93
2022-09-28T22:18:35.998Z,6.92
2022-09-28T22:21:04.371Z,6.95
2022-09-28T22:23:30.897Z,6.93
2022-09-28T22:26:00.309Z,6.89
2022-09-28T22:28:27.129Z,6.83
2022-09-28T22:30:53.910Z,6.83
2022-09-28T22:33:20.493Z,6.82
2022-09-28T22:35:47.204Z,6.71
2022-09-28T22:38:13.750Z,6.68
2022-09-28T22:40:42.268Z,6.62
2022-09-28T22:43:10.165Z,6.60
2022-09-28T22:45:36.714Z,6.56
2022-09-28T22:48:03.282Z,6.57
2022-09-28T22:50:29.828Z,6.52
2022-09-28T22:52:56.361Z,6.53
2022-09-28T22:55:22.990Z,6.59
2022-09-28T22:57:49.534Z,6.53
2022-09-28T23:00:17.490Z,6.51
2022-09-28T23:02:44.074Z,6.52
2022-09-28T23:05:10.715Z,6.60
2022-09-28T23:07:37.480Z,6.56
2022-09-28T23:10:04.714Z,6.58
2022-09-28T23:12:31.327Z,6.58
2022-09-28T23:14:57.848Z,6.60
2022-09-28T23:17:25.756Z,6.68
2022-09-28T23:19:52.347Z,6.67
2022-09-28T23:22:18.950Z,6.63
2022-09-28T23:24:45.499Z,6.65
2022-09-28T23:27:12.032Z,6.70
2022-09-28T23:29:38.590Z,6.72
2022-09-28T23:32:05.139Z,6.81
2022-09-28T23:34:33.176Z,6.83
2022-09-28T23:36:59.743Z,6.83
2022-09-28T23:39:26.287Z,6.81
2022-09-28T23:41:52.859Z,6.74
2022-09-28T23:44:19.381Z,6.70
2022-09-28T23:46:45.983Z,6.72
2022-09-28T23:49:12.600Z,6.70
2022-09-28T23:51:40.550Z,6.65
2022-09-28T23:54:07.102Z,6.63
2022-09-28T23:56:33.769Z,6.62
2022-09-28T23:59:00.314Z,6.66
